sensor_id;sensor_type;location;lat;lon;timestamp;temperature;humidity
76789;DHT22;65740;52.464;13.446;2023-08-21T00:00:44;27.60;54.60
76789;DHT22;65740;52.464;13.446;2023-08-21T00:03:10;27.60;54.70
76789;DHT22;65740;52.464;13.446;2023-08-21T00:05:35;27.60;54.70
76789;DHT22;65740;52.464;13.446;2023-08-21T00:08:01;27.60;54.60
76789;DHT22;65740;52.464;13.446;2023-08-21T00:10:27;27.60;54.50
76789;DHT22;65740;52.464;13.446;2023-08-21T00:12:52;27.60;54.60
76789;DHT22;65740;52.464;13.446;2023-08-21T00:15:18;27.60;54.50
76789;DHT22;65740;52.464;13.446;2023-08-21T00:17:43;27.60;54.50
76789;DHT22;65740;52.464;13.446;2023-08-21T00:20:09;27.60;54.50
76789;DHT22;65740;52.464;13.446;2023-08-21T00:22:36;27.50;54.40
76789;DHT22;65740;52.464;13.446;2023-08-21T00:25:02;27.50;54.30
76789;DHT22;65740;52.464;13.446;2023-08-21T00:27:28;27.50;54.30
76789;DHT22;65740;52.464;13.446;2023-08-21T00:29:53;27.50;54.30
76789;DHT22;65740;52.464;13.446;2023-08-21T00:32:19;27.50;54.20
76789;DHT22;65740;52.464;13.446;2023-08-21T00:34:44;27.50;54.20
76789;DHT22;65740;52.464;13.446;2023-08-21T00:37:10;27.50;54.20
76789;DHT22;65740;52.464;13.446;2023-08-21T00:39:36;27.50;54.10
76789;DHT22;65740;52.464;13.446;2023-08-21T00:42:02;27.50;54.10
76789;DHT22;65740;52.464;13.446;2023-08-21T00:44:27;27.50;54.10
76789;DHT22;65740;52.464;13.446;2023-08-21T00:46:53;27.50;54.10
76789;DHT22;65740;52.464;13.446;2023-08-21T00:49:20;27.40;54.00
76789;DHT22;65740;52.464;13.446;2023-08-21T00:51:47;27.40;54.00
76789;DHT22;65740;52.464;13.446;2023-08-21T00:54:13;27.40;54.00
76789;DHT22;65740;52.464;13.446;2023-08-21T00:56:38;27.40;53.90
76789;DHT22;65740;52.464;13.446;2023-08-21T00:59:04;27.40;53.80
76789;DHT22;65740;52.464;13.446;2023-08-21T01:01:30;27.40;53.90
76789;DHT22;65740;52.464;13.446;2023-08-21T01:03:55;27.40;53.80
76789;DHT22;65740;52.464;13.446;2023-08-21T01:06:21;27.40;53.80
76789;DHT22;65740;52.464;13.446;2023-08-21T01:08:55;27.40;53.80
76789;DHT22;65740;52.464;13.446;2023-08-21T01:11:34;27.40;53.80
76789;DHT22;65740;52.464;13.446;2023-08-21T01:16:37;27.30;53.70
76789;DHT22;65740;52.464;13.446;2023-08-21T01:19:03;27.30;53.70
76789;DHT22;65740;52.464;13.446;2023-08-21T01:21:31;27.30;53.60
76789;DHT22;65740;52.464;13.446;2023-08-21T01:23:57;27.30;53.60
76789;DHT22;65740;52.464;13.446;2023-08-21T01:26:23;27.30;53.50
76789;DHT22;65740;52.464;13.446;2023-08-21T01:28:48;27.30;53.60
76789;DHT22;65740;52.464;13.446;2023-08-21T01:31:33;27.30;53.60
76789;DHT22;65740;52.464;13.446;2023-08-21T01:34:04;27.30;53.50
76789;DHT22;65740;52.464;13.446;2023-08-21T01:36:31;27.20;53.40
76789;DHT22;65740;52.464;13.446;2023-08-21T01:38:57;27.20;53.30
76789;DHT22;65740;52.464;13.446;2023-08-21T01:41:23;27.20;53.30
76789;DHT22;65740;52.464;13.446;2023-08-21T01:43:49;27.20;53.20
76789;DHT22;65740;52.464;13.446;2023-08-21T01:46:15;27.20;53.20
76789;DHT22;65740;52.464;13.446;2023-08-21T01:48:40;27.20;53.20
76789;DHT22;65740;52.464;13.446;2023-08-21T01:51:06;27.20;53.10
76789;DHT22;65740;52.464;13.446;2023-08-21T01:53:32;27.20;53.00
76789;DHT22;65740;52.464;13.446;2023-08-21T01:55:57;27.20;52.80
76789;DHT22;65740;52.464;13.446;2023-08-21T01:58:23;27.20;52.90
76789;DHT22;65740;52.464;13.446;2023-08-21T02:00:48;27.20;52.90
76789;DHT22;65740;52.464;13.446;2023-08-21T02:03:14;27.20;52.80
76789;DHT22;65740;52.464;13.446;2023-08-21T02:05:40;27.20;52.70
76789;DHT22;65740;52.464;13.446;2023-08-21T02:08:12;27.10;52.60
76789;DHT22;65740;52.464;13.446;2023-08-21T02:10:48;27.20;52.50
76789;DHT22;65740;52.464;13.446;2023-08-21T02:13:13;27.10;52.40
76789;DHT22;65740;52.464;13.446;2023-08-21T02:15:39;27.10;52.50
76789;DHT22;65740;52.464;13.446;2023-08-21T02:18:04;27.10;52.50
76789;DHT22;65740;52.464;13.446;2023-08-21T02:20:30;27.10;52.40
76789;DHT22;65740;52.464;13.446;2023-08-21T02:22:55;27.10;52.40
76789;DHT22;65740;52.464;13.446;2023-08-21T02:25:21;27.10;53.00
76789;DHT22;65740;52.464;13.446;2023-08-21T02:27:47;27.10;52.40
76789;DHT22;65740;52.464;13.446;2023-08-21T02:30:12;27.10;52.40
76789;DHT22;65740;52.464;13.446;2023-08-21T02:32:38;27.10;52.40
76789;DHT22;65740;52.464;13.446;2023-08-21T02:35:06;27.10;52.40
76789;DHT22;65740;52.464;13.446;2023-08-21T02:37:31;27.00;52.30
76789;DHT22;65740;52.464;13.446;2023-08-21T02:39:57;27.00;52.30
76789;DHT22;65740;52.464;13.446;2023-08-21T02:42:23;27.00;52.30
76789;DHT22;65740;52.464;13.446;2023-08-21T02:44:48;27.00;52.30
76789;DHT22;65740;52.464;13.446;2023-08-21T02:47:14;27.00;52.30
76789;DHT22;65740;52.464;13.446;2023-08-21T02:49:39;27.00;52.30
76789;DHT22;65740;52.464;13.446;2023-08-21T02:52:05;27.00;52.30
76789;DHT22;65740;52.464;13.446;2023-08-21T02:54:31;27.00;53.00
76789;DHT22;65740;52.464;13.446;2023-08-21T02:56:56;27.00;52.30
76789;DHT22;65740;52.464;13.446;2023-08-21T02:59:22;27.00;52.30
76789;DHT22;65740;52.464;13.446;2023-08-21T03:01:47;27.00;52.30
76789;DHT22;65740;52.464;13.446;2023-08-21T03:04:13;26.90;52.20
76789;DHT22;65740;52.464;13.446;2023-08-21T03:06:39;26.90;52.30
76789;DHT22;65740;52.464;13.446;2023-08-21T03:09:04;26.90;52.30
76789;DHT22;65740;52.464;13.446;2023-08-21T03:11:30;26.90;52.20
76789;DHT22;65740;52.464;13.446;2023-08-21T03:13:55;26.90;52.20
76789;DHT22;65740;52.464;13.446;2023-08-21T03:16:21;26.90;52.20
76789;DHT22;65740;52.464;13.446;2023-08-21T03:18:58;26.90;52.20
76789;DHT22;65740;52.464;13.446;2023-08-21T03:21:24;26.90;52.20
76789;DHT22;65740;52.464;13.446;2023-08-21T03:23:55;26.90;52.30
76789;DHT22;65740;52.464;13.446;2023-08-21T03:26:22;26.90;52.20
76789;DHT22;65740;52.464;13.446;2023-08-21T03:28:48;26.80;52.20
76789;DHT22;65740;52.464;13.446;2023-08-21T03:31:14;26.90;52.20
76789;DHT22;65740;52.464;13.446;2023-08-21T03:33:40;26.80;52.20
76789;DHT22;65740;52.464;13.446;2023-08-21T03:36:05;26.80;52.20
76789;DHT22;65740;52.464;13.446;2023-08-21T03:38:31;26.80;52.20
76789;DHT22;65740;52.464;13.446;2023-08-21T03:40:57;26.80;52.20
76789;DHT22;65740;52.464;13.446;2023-08-21T03:43:22;26.80;52.20
76789;DHT22;65740;52.464;13.446;2023-08-21T03:45:48;26.80;52.20
76789;DHT22;65740;52.464;13.446;2023-08-21T03:48:13;26.80;52.20
76789;DHT22;65740;52.464;13.446;2023-08-21T03:50:39;26.80;52.20
76789;DHT22;65740;52.464;13.446;2023-08-21T03:53:05;26.80;52.20
76789;DHT22;65740;52.464;13.446;2023-08-21T03:55:30;26.80;52.80
76789;DHT22;65740;52.464;13.446;2023-08-21T03:57:56;26.80;52.20
76789;DHT22;65740;52.464;13.446;2023-08-21T04:00:21;26.80;52.20
76789;DHT22;65740;52.464;13.446;2023-08-21T04:02:47;26.70;52.10
76789;DHT22;65740;52.464;13.446;2023-08-21T04:05:13;26.80;52.20
76789;DHT22;65740;52.464;13.446;2023-08-21T04:07:38;26.80;52.20
76789;DHT22;65740;52.464;13.446;2023-08-21T04:10:05;26.80;52.20
76789;DHT22;65740;52.464;13.446;2023-08-21T04:12:31;26.70;52.10
76789;DHT22;65740;52.464;13.446;2023-08-21T04:14:57;26.70;52.10
76789;DHT22;65740;52.464;13.446;2023-08-21T04:17:23;26.70;52.10
76789;DHT22;65740;52.464;13.446;2023-08-21T04:19:50;26.70;52.20
76789;DHT22;65740;52.464;13.446;2023-08-21T04:22:15;26.70;52.10
76789;DHT22;65740;52.464;13.446;2023-08-21T04:24:41;26.70;52.10
76789;DHT22;65740;52.464;13.446;2023-08-21T04:27:07;26.70;52.10
76789;DHT22;65740;52.464;13.446;2023-08-21T04:29:35;26.70;52.10
76789;DHT22;65740;52.464;13.446;2023-08-21T04:32:00;26.70;52.10
76789;DHT22;65740;52.464;13.446;2023-08-21T04:34:26;26.70;52.10
76789;DHT22;65740;52.464;13.446;2023-08-21T04:36:51;26.70;52.10
76789;DHT22;65740;52.464;13.446;2023-08-21T04:39:18;26.70;52.10
76789;DHT22;65740;52.464;13.446;2023-08-21T04:41:43;26.70;52.10
76789;DHT22;65740;52.464;13.446;2023-08-21T04:44:09;26.70;52.10
76789;DHT22;65740;52.464;13.446;2023-08-21T04:46:34;26.70;52.20
76789;DHT22;65740;52.464;13.446;2023-08-21T04:49:00;26.60;52.00
76789;DHT22;65740;52.464;13.446;2023-08-21T04:51:25;26.60;52.00
76789;DHT22;65740;52.464;13.446;2023-08-21T04:53:51;26.70;52.10
76789;DHT22;65740;52.464;13.446;2023-08-21T04:56:16;26.70;52.10
76789;DHT22;65740;52.464;13.446;2023-08-21T04:58:42;26.60;52.00
76789;DHT22;65740;52.464;13.446;2023-08-21T05:01:08;26.60;52.00
76789;DHT22;65740;52.464;13.446;2023-08-21T05:03:34;26.60;52.00
76789;DHT22;65740;52.464;13.446;2023-08-21T05:05:59;26.60;52.00
76789;DHT22;65740;52.464;13.446;2023-08-21T05:08:26;26.60;52.00
76789;DHT22;65740;52.464;13.446;2023-08-21T05:11:01;26.60;52.00
76789;DHT22;65740;52.464;13.446;2023-08-21T05:13:27;26.60;52.20
76789;DHT22;65740;52.464;13.446;2023-08-21T05:15:54;26.60;52.00
76789;DHT22;65740;52.464;13.446;2023-08-21T05:18:20;26.60;52.00
76789;DHT22;65740;52.464;13.446;2023-08-21T05:20:47;26.60;52.00
76789;DHT22;65740;52.464;13.446;2023-08-21T05:23:13;26.60;52.00
76789;DHT22;65740;52.464;13.446;2023-08-21T05:25:38;26.60;52.00
76789;DHT22;65740;52.464;13.446;2023-08-21T05:28:05;26.60;52.00
76789;DHT22;65740;52.464;13.446;2023-08-21T05:30:30;26.60;52.00
76789;DHT22;65740;52.464;13.446;2023-08-21T05:32:56;26.60;52.00
76789;DHT22;65740;52.464;13.446;2023-08-21T05:35:22;26.60;52.00
76789;DHT22;65740;52.464;13.446;2023-08-21T05:37:47;26.60;52.00
76789;DHT22;65740;52.464;13.446;2023-08-21T05:40:13;26.50;52.00
76789;DHT22;65740;52.464;13.446;2023-08-21T05:42:39;26.50;52.00
76789;DHT22;65740;52.464;13.446;2023-08-21T05:45:05;26.50;52.00
76789;DHT22;65740;52.464;13.446;2023-08-21T05:47:31;26.50;52.00
76789;DHT22;65740;52.464;13.446;2023-08-21T05:49:57;26.50;52.00
76789;DHT22;65740;52.464;13.446;2023-08-21T05:52:22;26.50;52.00
76789;DHT22;65740;52.464;13.446;2023-08-21T05:54:48;26.50;52.00
76789;DHT22;65740;52.464;13.446;2023-08-21T05:57:14;26.50;52.00
76789;DHT22;65740;52.464;13.446;2023-08-21T05:59:46;26.50;52.00
76789;DHT22;65740;52.464;13.446;2023-08-21T06:02:12;26.50;51.90
76789;DHT22;65740;52.464;13.446;2023-08-21T06:04:40;26.50;51.90
76789;DHT22;65740;52.464;13.446;2023-08-21T06:07:06;26.50;52.00
76789;DHT22;65740;52.464;13.446;2023-08-21T06:09:32;26.50;52.00
76789;DHT22;65740;52.464;13.446;2023-08-21T06:11:59;26.50;51.80
76789;DHT22;65740;52.464;13.446;2023-08-21T06:14:26;26.60;51.70
76789;DHT22;65740;52.464;13.446;2023-08-21T06:17:04;26.60;51.40
76789;DHT22;65740;52.464;13.446;2023-08-21T06:19:30;26.50;51.80
76789;DHT22;65740;52.464;13.446;2023-08-21T06:21:56;26.50;51.70
76789;DHT22;65740;52.464;13.446;2023-08-21T06:24:22;26.60;51.70
76789;DHT22;65740;52.464;13.446;2023-08-21T06:26:48;26.50;51.80
76789;DHT22;65740;52.464;13.446;2023-08-21T06:29:13;26.50;51.50
76789;DHT22;65740;52.464;13.446;2023-08-21T06:31:39;26.60;51.50
76789;DHT22;65740;52.464;13.446;2023-08-21T06:34:04;26.60;51.50
76789;DHT22;65740;52.464;13.446;2023-08-21T06:36:30;26.60;51.80
76789;DHT22;65740;52.464;13.446;2023-08-21T06:38:56;26.60;51.60
76789;DHT22;65740;52.464;13.446;2023-08-21T06:41:21;26.60;51.40
76789;DHT22;65740;52.464;13.446;2023-08-21T06:43:47;26.60;51.80
76789;DHT22;65740;52.464;13.446;2023-08-21T06:46:13;26.60;51.90
76789;DHT22;65740;52.464;13.446;2023-08-21T06:48:40;26.60;52.00
76789;DHT22;65740;52.464;13.446;2023-08-21T06:51:08;26.50;51.60
76789;DHT22;65740;52.464;13.446;2023-08-21T06:53:35;26.60;52.00
76789;DHT22;65740;52.464;13.446;2023-08-21T06:56:00;26.60;52.00
76789;DHT22;65740;52.464;13.446;2023-08-21T06:58:26;26.60;52.00
76789;DHT22;65740;52.464;13.446;2023-08-21T07:00:54;26.60;52.00
76789;DHT22;65740;52.464;13.446;2023-08-21T07:03:20;26.60;52.00
76789;DHT22;65740;52.464;13.446;2023-08-21T07:05:58;26.60;52.00
76789;DHT22;65740;52.464;13.446;2023-08-21T07:08:25;26.60;52.00
76789;DHT22;65740;52.464;13.446;2023-08-21T07:10:51;26.60;52.00
76789;DHT22;65740;52.464;13.446;2023-08-21T07:13:17;26.50;53.00
76789;DHT22;65740;52.464;13.446;2023-08-21T07:15:43;26.50;52.70
76789;DHT22;65740;52.464;13.446;2023-08-21T07:18:09;26.50;53.10
76789;DHT22;65740;52.464;13.446;2023-08-21T07:20:34;26.50;53.20
76789;DHT22;65740;52.464;13.446;2023-08-21T07:23:00;26.40;53.60
76789;DHT22;65740;52.464;13.446;2023-08-21T07:25:26;26.40;54.10
76789;DHT22;65740;52.464;13.446;2023-08-21T07:27:54;26.30;53.90
76789;DHT22;65740;52.464;13.446;2023-08-21T07:30:20;26.30;54.10
76789;DHT22;65740;52.464;13.446;2023-08-21T07:32:46;26.30;54.10
76789;DHT22;65740;52.464;13.446;2023-08-21T07:35:12;26.40;54.60
76789;DHT22;65740;52.464;13.446;2023-08-21T07:37:38;26.30;54.40
76789;DHT22;65740;52.464;13.446;2023-08-21T07:40:06;26.40;54.80
76789;DHT22;65740;52.464;13.446;2023-08-21T07:42:32;26.30;54.80
76789;DHT22;65740;52.464;13.446;2023-08-21T07:44:58;26.30;55.00
76789;DHT22;65740;52.464;13.446;2023-08-21T07:47:23;26.30;55.00
76789;DHT22;65740;52.464;13.446;2023-08-21T07:49:49;26.30;55.00
76789;DHT22;65740;52.464;13.446;2023-08-21T07:52:14;26.30;54.80
76789;DHT22;65740;52.464;13.446;2023-08-21T07:54:41;26.30;54.50
76789;DHT22;65740;52.464;13.446;2023-08-21T07:57:07;26.20;54.00
76789;DHT22;65740;52.464;13.446;2023-08-21T07:59:32;26.10;53.50
76789;DHT22;65740;52.464;13.446;2023-08-21T08:01:58;26.20;53.30
76789;DHT22;65740;52.464;13.446;2023-08-21T08:04:25;26.20;52.70
76789;DHT22;65740;52.464;13.446;2023-08-21T08:06:51;26.00;52.40
76789;DHT22;65740;52.464;13.446;2023-08-21T08:09:16;26.00;51.60
76789;DHT22;65740;52.464;13.446;2023-08-21T08:11:42;26.00;51.70
76789;DHT22;65740;52.464;13.446;2023-08-21T08:14:07;26.00;51.60
76789;DHT22;65740;52.464;13.446;2023-08-21T08:16:33;26.00;51.60
76789;DHT22;65740;52.464;13.446;2023-08-21T08:18:59;26.00;50.70
76789;DHT22;65740;52.464;13.446;2023-08-21T08:21:24;26.00;50.90
76789;DHT22;65740;52.464;13.446;2023-08-21T08:23:50;26.00;50.90
76789;DHT22;65740;52.464;13.446;2023-08-21T08:26:16;26.00;50.70
76789;DHT22;65740;52.464;13.446;2023-08-21T08:28:42;26.10;50.60
76789;DHT22;65740;52.464;13.446;2023-08-21T08:31:17;26.10;50.40
76789;DHT22;65740;52.464;13.446;2023-08-21T08:33:43;26.10;50.20
76789;DHT22;65740;52.464;13.446;2023-08-21T08:36:09;26.10;49.30
76789;DHT22;65740;52.464;13.446;2023-08-21T08:38:34;26.20;48.20
76789;DHT22;65740;52.464;13.446;2023-08-21T08:41:02;26.20;48.70
76789;DHT22;65740;52.464;13.446;2023-08-21T08:43:28;26.20;48.60
76789;DHT22;65740;52.464;13.446;2023-08-21T08:45:56;26.10;48.10
76789;DHT22;65740;52.464;13.446;2023-08-21T08:48:23;26.20;48.40
76789;DHT22;65740;52.464;13.446;2023-08-21T08:50:51;26.20;49.00
76789;DHT22;65740;52.464;13.446;2023-08-21T08:53:18;26.20;48.70
76789;DHT22;65740;52.464;13.446;2023-08-21T08:55:44;26.30;48.80
76789;DHT22;65740;52.464;13.446;2023-08-21T08:58:10;26.30;48.90
76789;DHT22;65740;52.464;13.446;2023-08-21T09:00:36;26.30;50.00
76789;DHT22;65740;52.464;13.446;2023-08-21T09:03:01;26.30;48.80
76789;DHT22;65740;52.464;13.446;2023-08-21T09:05:28;26.30;49.00
76789;DHT22;65740;52.464;13.446;2023-08-21T09:08:09;26.30;48.70
76789;DHT22;65740;52.464;13.446;2023-08-21T09:10:39;26.30;48.30
76789;DHT22;65740;52.464;13.446;2023-08-21T09:13:25;26.30;48.10
76789;DHT22;65740;52.464;13.446;2023-08-21T09:15:54;26.40;47.20
76789;DHT22;65740;52.464;13.446;2023-08-21T09:18:23;26.40;46.30
76789;DHT22;65740;52.464;13.446;2023-08-21T09:20:48;26.40;45.30
76789;DHT22;65740;52.464;13.446;2023-08-21T09:23:15;26.50;45.20
76789;DHT22;65740;52.464;13.446;2023-08-21T09:25:44;26.50;44.60
76789;DHT22;65740;52.464;13.446;2023-08-21T09:28:12;26.40;45.50
76789;DHT22;65740;52.464;13.446;2023-08-21T09:30:48;26.50;46.20
76789;DHT22;65740;52.464;13.446;2023-08-21T09:33:17;26.50;46.40
76789;DHT22;65740;52.464;13.446;2023-08-21T09:35:43;26.40;45.20
76789;DHT22;65740;52.464;13.446;2023-08-21T09:38:09;26.50;44.00
76789;DHT22;65740;52.464;13.446;2023-08-21T09:40:39;26.50;43.60
76789;DHT22;65740;52.464;13.446;2023-08-21T09:43:07;26.50;42.90
76789;DHT22;65740;52.464;13.446;2023-08-21T09:45:33;26.50;42.90
76789;DHT22;65740;52.464;13.446;2023-08-21T09:47:59;26.50;42.90
76789;DHT22;65740;52.464;13.446;2023-08-21T09:50:26;26.60;42.40
76789;DHT22;65740;52.464;13.446;2023-08-21T09:52:54;26.60;42.20
76789;DHT22;65740;52.464;13.446;2023-08-21T09:55:20;26.60;43.00
76789;DHT22;65740;52.464;13.446;2023-08-21T09:57:48;26.60;42.20
76789;DHT22;65740;52.464;13.446;2023-08-21T10:00:22;26.60;42.00
76789;DHT22;65740;52.464;13.446;2023-08-21T10:02:51;26.70;41.80
76789;DHT22;65740;52.464;13.446;2023-08-21T10:05:17;26.70;42.30
76789;DHT22;65740;52.464;13.446;2023-08-21T10:07:50;26.70;42.50
76789;DHT22;65740;52.464;13.446;2023-08-21T10:10:16;26.70;41.30
76789;DHT22;65740;52.464;13.446;2023-08-21T10:12:42;26.70;41.70
76789;DHT22;65740;52.464;13.446;2023-08-21T10:15:09;26.70;41.40
76789;DHT22;65740;52.464;13.446;2023-08-21T10:17:36;26.70;42.20
76789;DHT22;65740;52.464;13.446;2023-08-21T10:20:05;26.80;42.20
76789;DHT22;65740;52.464;13.446;2023-08-21T10:22:49;26.80;42.30
76789;DHT22;65740;52.464;13.446;2023-08-21T10:25:23;26.80;41.70
76789;DHT22;65740;52.464;13.446;2023-08-21T10:27:54;26.70;41.70
76789;DHT22;65740;52.464;13.446;2023-08-21T10:30:24;26.80;41.80
76789;DHT22;65740;52.464;13.446;2023-08-21T10:32:55;26.90;42.40
76789;DHT22;65740;52.464;13.446;2023-08-21T10:35:22;26.90;42.60
76789;DHT22;65740;52.464;13.446;2023-08-21T10:38:14;26.90;42.50
76789;DHT22;65740;52.464;13.446;2023-08-21T10:41:04;26.90;42.20
76789;DHT22;65740;52.464;13.446;2023-08-21T10:43:43;26.80;42.20
76789;DHT22;65740;52.464;13.446;2023-08-21T10:46:09;26.80;42.30
76789;DHT22;65740;52.464;13.446;2023-08-21T10:48:36;26.80;42.50
76789;DHT22;65740;52.464;13.446;2023-08-21T10:51:04;26.90;42.40
76789;DHT22;65740;52.464;13.446;2023-08-21T10:53:30;27.00;42.50
76789;DHT22;65740;52.464;13.446;2023-08-21T10:55:57;27.00;42.20
76789;DHT22;65740;52.464;13.446;2023-08-21T10:58:26;27.10;42.10
76789;DHT22;65740;52.464;13.446;2023-08-21T11:00:58;27.10;42.50
76789;DHT22;65740;52.464;13.446;2023-08-21T11:03:24;27.10;42.20
76789;DHT22;65740;52.464;13.446;2023-08-21T11:06:04;27.10;42.60
76789;DHT22;65740;52.464;13.446;2023-08-21T11:08:30;27.10;42.50
76789;DHT22;65740;52.464;13.446;2023-08-21T11:10:56;27.10;43.30
76789;DHT22;65740;52.464;13.446;2023-08-21T11:13:25;27.10;42.20
76789;DHT22;65740;52.464;13.446;2023-08-21T11:16:04;27.20;42.20
76789;DHT22;65740;52.464;13.446;2023-08-21T11:18:33;27.20;41.40
76789;DHT22;65740;52.464;13.446;2023-08-21T11:21:10;27.20;41.10
76789;DHT22;65740;52.464;13.446;2023-08-21T11:23:40;27.20;41.40
76789;DHT22;65740;52.464;13.446;2023-08-21T11:26:10;27.20;42.40
76789;DHT22;65740;52.464;13.446;2023-08-21T11:28:36;27.20;41.20
76789;DHT22;65740;52.464;13.446;2023-08-21T11:31:02;27.20;43.40
76789;DHT22;65740;52.464;13.446;2023-08-21T11:33:28;27.20;41.30
76789;DHT22;65740;52.464;13.446;2023-08-21T11:35:55;27.10;41.90
76789;DHT22;65740;52.464;13.446;2023-08-21T11:38:23;27.10;42.10
76789;DHT22;65740;52.464;13.446;2023-08-21T11:43:18;27.30;43.00
76789;DHT22;65740;52.464;13.446;2023-08-21T11:45:46;27.20;43.40
76789;DHT22;65740;52.464;13.446;2023-08-21T11:48:12;27.30;42.30
76789;DHT22;65740;52.464;13.446;2023-08-21T11:50:39;27.30;43.10
76789;DHT22;65740;52.464;13.446;2023-08-21T11:53:04;27.40;43.20
76789;DHT22;65740;52.464;13.446;2023-08-21T11:55:31;27.40;42.60
76789;DHT22;65740;52.464;13.446;2023-08-21T11:57:57;27.40;43.30
76789;DHT22;65740;52.464;13.446;2023-08-21T12:00:29;27.50;42.40
76789;DHT22;65740;52.464;13.446;2023-08-21T12:02:57;27.50;42.10
76789;DHT22;65740;52.464;13.446;2023-08-21T12:05:23;27.50;41.20
76789;DHT22;65740;52.464;13.446;2023-08-21T12:07:48;27.50;40.50
76789;DHT22;65740;52.464;13.446;2023-08-21T12:10:14;27.40;40.10
76789;DHT22;65740;52.464;13.446;2023-08-21T12:12:39;27.50;41.20
76789;DHT22;65740;52.464;13.446;2023-08-21T12:15:05;27.40;40.20
76789;DHT22;65740;52.464;13.446;2023-08-21T12:17:31;27.40;40.10
76789;DHT22;65740;52.464;13.446;2023-08-21T12:19:57;27.50;40.60
76789;DHT22;65740;52.464;13.446;2023-08-21T12:22:22;27.50;40.90
76789;DHT22;65740;52.464;13.446;2023-08-21T12:24:49;27.50;40.60
76789;DHT22;65740;52.464;13.446;2023-08-21T12:27:14;27.50;40.90
76789;DHT22;65740;52.464;13.446;2023-08-21T12:29:41;27.60;40.10
76789;DHT22;65740;52.464;13.446;2023-08-21T12:32:07;27.50;39.80
76789;DHT22;65740;52.464;13.446;2023-08-21T12:34:32;27.50;40.70
76789;DHT22;65740;52.464;13.446;2023-08-21T12:36:58;27.50;39.60
76789;DHT22;65740;52.464;13.446;2023-08-21T12:39:23;27.50;39.80
76789;DHT22;65740;52.464;13.446;2023-08-21T12:41:49;27.50;39.70
76789;DHT22;65740;52.464;13.446;2023-08-21T12:44:15;27.60;39.60
76789;DHT22;65740;52.464;13.446;2023-08-21T12:46:40;27.60;41.70
76789;DHT22;65740;52.464;13.446;2023-08-21T12:49:06;27.60;41.00
76789;DHT22;65740;52.464;13.446;2023-08-21T12:51:32;27.60;40.40
76789;DHT22;65740;52.464;13.446;2023-08-21T12:53:58;27.60;40.70
76789;DHT22;65740;52.464;13.446;2023-08-21T12:56:24;27.70;40.40
76789;DHT22;65740;52.464;13.446;2023-08-21T12:58:49;27.70;40.60
76789;DHT22;65740;52.464;13.446;2023-08-21T13:01:15;27.60;40.10
76789;DHT22;65740;52.464;13.446;2023-08-21T13:03:47;27.60;39.80
76789;DHT22;65740;52.464;13.446;2023-08-21T13:06:13;27.60;39.80
76789;DHT22;65740;52.464;13.446;2023-08-21T13:08:39;27.70;39.10
76789;DHT22;65740;52.464;13.446;2023-08-21T13:11:05;27.70;39.40
76789;DHT22;65740;52.464;13.446;2023-08-21T13:13:31;27.70;39.00
76789;DHT22;65740;52.464;13.446;2023-08-21T13:15:57;27.70;38.90
76789;DHT22;65740;52.464;13.446;2023-08-21T13:18:22;27.70;39.10
76789;DHT22;65740;52.464;13.446;2023-08-21T13:20:48;27.70;39.30
76789;DHT22;65740;52.464;13.446;2023-08-21T13:23:14;27.70;39.00
76789;DHT22;65740;52.464;13.446;2023-08-21T13:25:40;27.70;38.40
76789;DHT22;65740;52.464;13.446;2023-08-21T13:28:06;27.70;38.90
76789;DHT22;65740;52.464;13.446;2023-08-21T13:30:31;27.70;38.90
76789;DHT22;65740;52.464;13.446;2023-08-21T13:32:57;27.70;38.30
76789;DHT22;65740;52.464;13.446;2023-08-21T13:35:23;27.70;38.80
76789;DHT22;65740;52.464;13.446;2023-08-21T13:37:50;27.70;39.30
76789;DHT22;65740;52.464;13.446;2023-08-21T13:40:16;27.70;38.60
76789;DHT22;65740;52.464;13.446;2023-08-21T13:42:46;27.70;38.60
76789;DHT22;65740;52.464;13.446;2023-08-21T13:45:13;27.70;37.90
76789;DHT22;65740;52.464;13.446;2023-08-21T13:47:39;27.70;37.90
76789;DHT22;65740;52.464;13.446;2023-08-21T13:50:06;27.70;37.60
76789;DHT22;65740;52.464;13.446;2023-08-21T13:52:32;27.70;37.20
76789;DHT22;65740;52.464;13.446;2023-08-21T13:54:58;27.70;37.00
76789;DHT22;65740;52.464;13.446;2023-08-21T13:57:24;27.70;37.50
76789;DHT22;65740;52.464;13.446;2023-08-21T13:59:50;27.70;37.20
76789;DHT22;65740;52.464;13.446;2023-08-21T14:02:15;27.80;37.60
76789;DHT22;65740;52.464;13.446;2023-08-21T14:04:44;27.80;37.50
76789;DHT22;65740;52.464;13.446;2023-08-21T14:07:09;27.80;36.90
76789;DHT22;65740;52.464;13.446;2023-08-21T14:09:35;27.80;36.20
76789;DHT22;65740;52.464;13.446;2023-08-21T14:12:02;27.70;36.20
76789;DHT22;65740;52.464;13.446;2023-08-21T14:14:27;27.70;36.80
76789;DHT22;65740;52.464;13.446;2023-08-21T14:16:53;27.70;36.70
76789;DHT22;65740;52.464;13.446;2023-08-21T14:19:18;27.80;36.50
76789;DHT22;65740;52.464;13.446;2023-08-21T14:21:44;27.80;36.60
76789;DHT22;65740;52.464;13.446;2023-08-21T14:24:10;27.80;37.10
76789;DHT22;65740;52.464;13.446;2023-08-21T14:26:36;27.80;36.80
76789;DHT22;65740;52.464;13.446;2023-08-21T14:29:02;27.80;37.50
76789;DHT22;65740;52.464;13.446;2023-08-21T14:31:27;27.90;37.00
76789;DHT22;65740;52.464;13.446;2023-08-21T14:33:53;27.90;37.40
76789;DHT22;65740;52.464;13.446;2023-08-21T14:36:18;27.90;37.00
76789;DHT22;65740;52.464;13.446;2023-08-21T14:38:45;27.90;36.80
76789;DHT22;65740;52.464;13.446;2023-08-21T14:41:10;27.90;38.10
76789;DHT22;65740;52.464;13.446;2023-08-21T14:43:36;27.90;39.20
76789;DHT22;65740;52.464;13.446;2023-08-21T14:46:01;27.90;38.40
76789;DHT22;65740;52.464;13.446;2023-08-21T14:48:29;27.90;38.20
76789;DHT22;65740;52.464;13.446;2023-08-21T14:50:55;27.90;37.60
76789;DHT22;65740;52.464;13.446;2023-08-21T14:53:20;27.80;37.60
76789;DHT22;65740;52.464;13.446;2023-08-21T14:55:46;27.80;36.70
76789;DHT22;65740;52.464;13.446;2023-08-21T14:58:12;27.80;36.60
76789;DHT22;65740;52.464;13.446;2023-08-21T15:00:37;27.70;37.20
76789;DHT22;65740;52.464;13.446;2023-08-21T15:03:03;27.70;36.90
76789;DHT22;65740;52.464;13.446;2023-08-21T15:05:29;27.70;36.90
76789;DHT22;65740;52.464;13.446;2023-08-21T15:07:55;27.70;37.10
76789;DHT22;65740;52.464;13.446;2023-08-21T15:10:21;27.80;37.30
76789;DHT22;65740;52.464;13.446;2023-08-21T15:12:47;27.80;37.30
76789;DHT22;65740;52.464;13.446;2023-08-21T15:15:12;27.80;37.30
76789;DHT22;65740;52.464;13.446;2023-08-21T15:17:38;27.80;37.10